モスクワ/シェレメーチエヴォ の空港の天気 - METARとTAF

シェレメーチエヴォ国際空港(モスクワ) ( UUEE / SVO ) - ロシア モスクワ
飛行場実況気象(Metar)
観測時間02/28 03:30 MSK (02/28 00:30 UTC)
風向・風速西 1m/s
視程10km以上
天気現象
全天の8割程度の雲 雲底高度 1190m
気温-1℃
湿度86%
気圧1014hPa
METARUUEE 280030Z 28001MPS 9999 BKN039 M01/M03 Q1014 R24R/510240 R24L/510245 NOSIG
過去の天気等 Google飛行場航空写真 Wunderground天気予報

過去48時間のMETAR

飛行場予報(TAF)
発表時間: 2/28 01:59 MSK (2/27 22:59 UTC)
予報対象時間: 28日3時 MSK ~ 1日3時 MSK
風向・風速不定 1m/s
視程4,000m
天気現象もや
全天の8割程度の雲 雲底高度 210m
28日3時 MSK ~ 28日9時 MSK に一時的に
視程800m
天気現象弱い雪 氷霧
全天の8割程度の雲 雲底高度 90m
28日3時 MSK ~ 28日9時 MSK に 確率 40% で一時的に
天気現象弱い氷霧雨
全天を覆う雲 雲底高度 60m
28日5時 MSK ~ 28日7時 MSK に徐々に
風向・風速南 5m/s
28日10時 MSK ~ 28日11時 MSK に徐々に
視程10km以上
天気現象運行に影響にある天気現象が終了
全天の8割程度の雲 雲底高度 370m
TAF UUEE 272259Z 2800/2824 VRB01MPS 4000 BR BKN007 TX02/2812Z TNM04/2803Z
TEMPO 2800/2806 0800 -SN FZFG BKN003
PROB40 TEMPO 2800/2806 -FZDZ OVC002
BECMG 2802/2804 18005MPS
BECMG 2807/2808 9999 NSW BKN012